createdAt,value
2019-05-30T00:00:55.890Z,99361.00
2019-05-30T00:03:24.687Z,99360.00
2019-05-30T00:05:54.309Z,99355.00
2019-05-30T00:08:23.098Z,99370.00
2019-05-30T00:10:51.930Z,99360.00
2019-05-30T00:13:20.659Z,99374.00
2019-05-30T00:15:49.682Z,99380.00
2019-05-30T00:18:18.420Z,99364.00
2019-05-30T00:20:47.238Z,99372.00
2019-05-30T00:23:15.962Z,99368.00
2019-05-30T00:25:44.687Z,99375.00
2019-05-30T00:28:13.423Z,99380.00
2019-05-30T00:30:42.154Z,99383.00
2019-05-30T00:33:10.913Z,99363.00
2019-05-30T00:35:39.666Z,99383.00
2019-05-30T00:38:08.402Z,99371.00
2019-05-30T00:40:37.118Z,99379.00
2019-05-30T00:43:06.293Z,99376.00
2019-05-30T00:45:35.067Z,99367.00
2019-05-30T00:48:04.386Z,99362.00
2019-05-30T00:50:33.241Z,99374.00
2019-05-30T00:53:02.898Z,99372.00
2019-05-30T00:55:31.713Z,99370.00
2019-05-30T00:58:00.659Z,99374.00
2019-05-30T01:00:42.627Z,99376.00
2019-05-30T01:03:02.829Z,99384.00
2019-05-30T01:05:30.649Z,99387.00
2019-05-30T01:07:59.388Z,99381.00
2019-05-30T01:10:28.106Z,99377.00
2019-05-30T01:12:56.909Z,99376.00
2019-05-30T01:15:25.662Z,99369.00
2019-05-30T01:17:54.406Z,99375.00
2019-05-30T01:20:23.126Z,99366.00
2019-05-30T01:22:52.366Z,99365.00
2019-05-30T01:25:21.091Z,99373.00
2019-05-30T01:27:49.831Z,99378.00
2019-05-30T01:30:18.553Z,99378.00
2019-05-30T01:32:47.312Z,99367.00
2019-05-30T01:35:16.067Z,99372.00
2019-05-30T01:37:44.803Z,99374.00
2019-05-30T01:40:13.761Z,99377.00
2019-05-30T01:42:42.504Z,99376.00
2019-05-30T01:45:11.315Z,99370.00
2019-05-30T01:47:40.059Z,99379.00
2019-05-30T01:50:08.953Z,99372.00
2019-05-30T01:52:37.761Z,99379.00
2019-05-30T01:55:06.765Z,99374.00
2019-05-30T01:57:35.561Z,99374.00
2019-05-30T02:00:07.888Z,99369.00
2019-05-30T02:02:35.366Z,99369.00
2019-05-30T02:05:05.086Z,99376.00
2019-05-30T02:07:33.919Z,99386.00
2019-05-30T02:10:03.284Z,99380.00
2019-05-30T02:12:32.104Z,99385.00
2019-05-30T02:15:01.526Z,99386.00
2019-05-30T02:17:30.366Z,99373.00
2019-05-30T02:19:59.680Z,99386.00
2019-05-30T02:22:28.918Z,99374.00
2019-05-30T02:24:58.075Z,99385.00
2019-05-30T02:27:27.244Z,99379.00
2019-05-30T02:29:56.954Z,99386.00
2019-05-30T02:32:26.186Z,99393.00
2019-05-30T02:34:55.408Z,99387.00
2019-05-30T02:37:24.592Z,99386.00
2019-05-30T02:39:53.746Z,99392.00
2019-05-30T02:42:23.011Z,99392.00
2019-05-30T02:44:52.256Z,99393.00
2019-05-30T02:47:22.473Z,99396.00
2019-05-30T02:49:51.863Z,99398.00
2019-05-30T02:52:20.967Z,99399.00
2019-05-30T02:54:50.218Z,99389.00
2019-05-30T02:57:19.391Z,99401.00
2019-05-30T02:59:48.614Z,99407.00
2019-05-30T03:02:18.074Z,99401.00
2019-05-30T03:04:47.197Z,99395.00
2019-05-30T03:07:16.467Z,99408.00
2019-05-30T03:09:45.581Z,99404.00
2019-05-30T03:12:14.896Z,99404.00
2019-05-30T03:14:44.119Z,99407.00
2019-05-30T03:17:14.691Z,99407.00
2019-05-30T03:19:44.072Z,99415.00
2019-05-30T03:22:13.953Z,99409.00
2019-05-30T03:24:43.254Z,99404.00
2019-05-30T03:27:14.144Z,99403.00
2019-05-30T03:29:43.520Z,99404.00
2019-05-30T03:32:49.038Z,99404.00
2019-05-30T03:34:43.552Z,99412.00
2019-05-30T03:37:23.018Z,99422.00
2019-05-30T03:39:43.727Z,99412.00
2019-05-30T03:42:13.716Z,99423.00
2019-05-30T03:44:43.764Z,99419.00
2019-05-30T03:47:13.782Z,99423.00
2019-05-30T03:49:44.236Z,99412.00
2019-05-30T03:52:16.838Z,99411.00
2019-05-30T03:54:44.980Z,99420.00
2019-05-30T03:57:17.389Z,99422.00
2019-05-30T03:59:50.631Z,99422.00
2019-05-30T04:02:26.250Z,99423.00
2019-05-30T04:05:03.295Z,99425.00
2019-05-30T04:07:32.424Z,99425.00
2019-05-30T04:10:01.626Z,99428.00
2019-05-30T04:12:42.801Z,99426.00
2019-05-30T04:15:18.752Z,99425.00
2019-05-30T04:17:48.069Z,99402.00
2019-05-30T04:20:21.196Z,99438.00
2019-05-30T04:22:48.037Z,99433.00
2019-05-30T04:25:18.661Z,99432.00
2019-05-30T04:27:47.933Z,99431.00
2019-05-30T04:30:18.490Z,99439.00
2019-05-30T04:32:47.722Z,99436.00
2019-05-30T04:35:18.695Z,99437.00
2019-05-30T04:37:48.057Z,99437.00
2019-05-30T04:40:18.015Z,99444.00
2019-05-30T04:42:48.201Z,99442.00
2019-05-30T04:45:17.972Z,99450.00
2019-05-30T04:47:47.292Z,99446.00
2019-05-30T04:50:16.630Z,99449.00
2019-05-30T04:52:47.351Z,99452.00
2019-05-30T04:55:20.006Z,99448.00
2019-05-30T04:57:47.291Z,99455.00
2019-05-30T05:00:17.096Z,99445.00
2019-05-30T05:02:46.390Z,99452.00
2019-05-30T05:05:20.893Z,99453.00
2019-05-30T05:07:46.641Z,99450.00
2019-05-30T05:10:16.071Z,99459.00
2019-05-30T05:12:45.370Z,99457.00
2019-05-30T05:15:14.830Z,99466.00
2019-05-30T05:17:44.048Z,99471.00
2019-05-30T05:20:13.435Z,99468.00
2019-05-30T05:22:42.688Z,99466.00
2019-05-30T05:25:11.788Z,99459.00
2019-05-30T05:27:40.957Z,99455.00
2019-05-30T05:30:10.117Z,99457.00
2019-05-30T05:32:39.643Z,99453.00
2019-05-30T05:35:08.763Z,99451.00
2019-05-30T05:37:38.051Z,99458.00
2019-05-30T05:40:07.474Z,99451.00
2019-05-30T05:42:36.641Z,99463.00
2019-05-30T05:45:06.553Z,99463.00
2019-05-30T05:47:35.715Z,99451.00
2019-05-30T05:50:05.095Z,99472.00
2019-05-30T05:52:34.373Z,99468.00
2019-05-30T05:55:03.530Z,99473.00
2019-05-30T05:57:32.682Z,99470.00
2019-05-30T06:00:01.932Z,99466.00
2019-05-30T06:02:31.167Z,99470.00
2019-05-30T06:05:00.425Z,99466.00
2019-05-30T06:07:29.640Z,99471.00
2019-05-30T06:09:58.872Z,99472.00
2019-05-30T06:12:27.984Z,99482.00
2019-05-30T06:14:57.118Z,99480.00
2019-05-30T06:17:26.205Z,99480.00
2019-05-30T06:19:55.380Z,99472.00
2019-05-30T06:22:25.577Z,99464.00
2019-05-30T06:24:54.724Z,99471.00
2019-05-30T06:27:24.038Z,99472.00
2019-05-30T06:29:53.200Z,99480.00
2019-05-30T06:32:22.889Z,99486.00
2019-05-30T06:34:52.216Z,99471.00
2019-05-30T06:37:21.747Z,99488.00
2019-05-30T06:39:51.056Z,99490.00
2019-05-30T06:42:21.611Z,99488.00
2019-05-30T06:44:50.953Z,99483.00
2019-05-30T06:47:20.237Z,99483.00
2019-05-30T06:49:49.573Z,99481.00
2019-05-30T06:52:18.813Z,99480.00
2019-05-30T06:54:47.997Z,99486.00
2019-05-30T06:57:17.948Z,99481.00
2019-05-30T06:59:47.364Z,99480.00
2019-05-30T07:02:16.620Z,99485.00
2019-05-30T07:04:51.721Z,99482.00
2019-05-30T07:07:16.854Z,99477.00
2019-05-30T07:09:46.294Z,99485.00
2019-05-30T07:12:15.701Z,99484.00
2019-05-30T07:14:45.315Z,99480.00
2019-05-30T07:17:14.669Z,99481.00
2019-05-30T07:19:44.017Z,99482.00
2019-05-30T07:22:13.394Z,99490.00
2019-05-30T07:24:42.539Z,99482.00
2019-05-30T07:27:11.697Z,99480.00
2019-05-30T07:29:40.879Z,99487.00
2019-05-30T07:32:13.204Z,99484.00
2019-05-30T07:34:41.061Z,99493.00
2019-05-30T07:37:10.382Z,99489.00
2019-05-30T07:39:39.531Z,99488.00
2019-05-30T07:42:08.808Z,99488.00
2019-05-30T07:44:37.998Z,99478.00
2019-05-30T07:47:07.722Z,99477.00
2019-05-30T07:49:36.945Z,99480.00
2019-05-30T07:52:06.641Z,99475.00
2019-05-30T07:54:36.156Z,99479.00
2019-05-30T07:57:05.608Z,99479.00
2019-05-30T07:59:34.828Z,99482.00
2019-05-30T08:02:03.993Z,99485.00
2019-05-30T08:04:34.119Z,99491.00
2019-05-30T08:07:03.527Z,99488.00
2019-05-30T08:09:32.939Z,99488.00
2019-05-30T08:12:02.437Z,99480.00
2019-05-30T08:14:33.170Z,99482.00
2019-05-30T08:17:02.912Z,99478.00
2019-05-30T08:19:32.704Z,99482.00
2019-05-30T08:22:03.345Z,99474.00
2019-05-30T08:24:32.576Z,99475.00
2019-05-30T08:27:01.933Z,99465.00
2019-05-30T08:29:32.181Z,99464.00
2019-05-30T08:32:01.392Z,99468.00
2019-05-30T08:34:30.766Z,99474.00
2019-05-30T08:37:00.053Z,99469.00
2019-05-30T08:39:29.261Z,99457.00
2019-05-30T08:41:58.448Z,99467.00
2019-05-30T08:44:27.671Z,99463.00
2019-05-30T08:46:56.952Z,99466.00
2019-05-30T08:49:26.531Z,99469.00
2019-05-30T08:51:55.702Z,99468.00
2019-05-30T08:54:25.571Z,99470.00
2019-05-30T08:56:54.888Z,99467.00
2019-05-30T08:59:24.048Z,99458.00
2019-05-30T09:01:53.462Z,99469.00
2019-05-30T09:04:23.261Z,99459.00
2019-05-30T09:06:52.542Z,99455.00
2019-05-30T09:09:22.157Z,99461.00
2019-05-30T09:11:51.489Z,99448.00
2019-05-30T09:14:21.090Z,99449.00
2019-05-30T09:16:51.217Z,99444.00
2019-05-30T09:19:20.566Z,99442.00
2019-05-30T09:21:49.989Z,99442.00
2019-05-30T09:24:19.438Z,99441.00
2019-05-30T09:26:50.427Z,99438.00
2019-05-30T09:29:19.956Z,99451.00
2019-05-30T09:31:49.147Z,99438.00
2019-05-30T09:34:18.440Z,99438.00
2019-05-30T09:36:48.967Z,99435.00
2019-05-30T09:39:18.550Z,99439.00
2019-05-30T09:41:47.847Z,99435.00
2019-05-30T09:44:17.508Z,99435.00
2019-05-30T09:46:47.092Z,99440.00
2019-05-30T09:49:17.822Z,99434.00
2019-05-30T09:51:47.074Z,99426.00
2019-05-30T09:54:16.413Z,99430.00
2019-05-30T09:56:46.537Z,99428.00
2019-05-30T09:59:16.443Z,99431.00
2019-05-30T10:01:46.078Z,99431.00
2019-05-30T10:04:15.231Z,99443.00
2019-05-30T10:06:44.682Z,99429.00
2019-05-30T10:09:14.020Z,99431.00
2019-05-30T10:11:44.475Z,99421.00
2019-05-30T10:14:14.259Z,99429.00
2019-05-30T10:16:47.339Z,99426.00
2019-05-30T10:19:14.449Z,99418.00
2019-05-30T10:21:45.458Z,99426.00
2019-05-30T10:24:15.543Z,99414.00
2019-05-30T10:26:46.101Z,99413.00
2019-05-30T10:29:15.711Z,99412.00
2019-05-30T10:31:45.082Z,99419.00
2019-05-30T10:34:15.527Z,99413.00
2019-05-30T10:36:46.284Z,99401.00
2019-05-30T10:39:15.920Z,99399.00
2019-05-30T10:41:46.225Z,99405.00
2019-05-30T10:44:15.826Z,99397.00
2019-05-30T10:46:47.035Z,99417.00
2019-05-30T10:49:15.934Z,99406.00
2019-05-30T10:51:46.267Z,99405.00
2019-05-30T10:54:16.337Z,99394.00
2019-05-30T10:56:47.048Z,99395.00
2019-05-30T10:59:16.529Z,99391.00
2019-05-30T11:01:46.698Z,99397.00
2019-05-30T11:04:16.509Z,99400.00
2019-05-30T11:07:11.615Z,99393.00
2019-05-30T11:09:42.565Z,99392.00
2019-05-30T11:12:11.839Z,99393.00
2019-05-30T11:14:40.859Z,99392.00
2019-05-30T11:17:10.008Z,99386.00
2019-05-30T11:19:39.336Z,99378.00
2019-05-30T11:22:08.597Z,99372.00
2019-05-30T11:24:37.783Z,99376.00
2019-05-30T11:27:07.267Z,99380.00
2019-05-30T11:29:36.701Z,99373.00
2019-05-30T11:32:06.016Z,99373.00
2019-05-30T11:34:35.163Z,99362.00
2019-05-30T11:37:18.244Z,99366.00
2019-05-30T11:39:35.370Z,99361.00
2019-05-30T11:42:04.716Z,99365.00
2019-05-30T11:44:33.941Z,99354.00
2019-05-30T11:47:03.719Z,99350.00
2019-05-30T11:49:32.963Z,99356.00
2019-05-30T11:52:02.411Z,99344.00
2019-05-30T11:54:31.560Z,99350.00
2019-05-30T11:57:01.189Z,99353.00
2019-05-30T11:59:30.423Z,99346.00
2019-05-30T12:02:00.530Z,99345.00
2019-05-30T12:04:29.867Z,99344.00
2019-05-30T12:06:59.035Z,99352.00
2019-05-30T12:09:28.231Z,99347.00
2019-05-30T12:11:57.511Z,99349.00
2019-05-30T12:14:26.684Z,99342.00
2019-05-30T12:16:57.243Z,99347.00
2019-05-30T12:19:26.727Z,99344.00
2019-05-30T12:22:00.066Z,99345.00
2019-05-30T12:24:29.387Z,99345.00
2019-05-30T12:26:58.601Z,99346.00
2019-05-30T12:29:27.956Z,99345.00
2019-05-30T12:31:59.203Z,99335.00
2019-05-30T12:34:28.234Z,99341.00
2019-05-30T12:36:58.506Z,99336.00
2019-05-30T12:39:27.793Z,99340.00
2019-05-30T12:41:57.095Z,99341.00
2019-05-30T12:44:26.230Z,99330.00
2019-05-30T12:46:57.039Z,99331.00
2019-05-30T12:49:26.368Z,99326.00
2019-05-30T12:51:56.170Z,99344.00
2019-05-30T12:54:25.286Z,99329.00
2019-05-30T12:56:54.654Z,99327.00
2019-05-30T12:59:23.798Z,99339.00
2019-05-30T13:01:53.216Z,99336.00
2019-05-30T13:04:22.612Z,99335.00
2019-05-30T13:06:54.153Z,99329.00
2019-05-30T13:09:22.855Z,99339.00
2019-05-30T13:11:52.212Z,99337.00
2019-05-30T13:14:21.436Z,99333.00
2019-05-30T13:16:50.737Z,99325.00
2019-05-30T13:19:19.980Z,99327.00
2019-05-30T13:21:49.265Z,99324.00
2019-05-30T13:24:18.965Z,99327.00
2019-05-30T13:26:48.569Z,99331.00
2019-05-30T13:29:18.319Z,99325.00
2019-05-30T13:31:48.265Z,99329.00
2019-05-30T13:34:17.643Z,99326.00
2019-05-30T13:36:46.842Z,99326.00
2019-05-30T13:39:16.097Z,99328.00
2019-05-30T13:41:46.057Z,99330.00
2019-05-30T13:44:15.384Z,99322.00
2019-05-30T13:46:44.774Z,99326.00
2019-05-30T13:49:13.985Z,99329.00
2019-05-30T13:51:43.435Z,99335.00
2019-05-30T13:54:12.715Z,99328.00
2019-05-30T13:56:41.921Z,99321.00
2019-05-30T13:59:11.107Z,99323.00
2019-05-30T14:01:40.481Z,99326.00
2019-05-30T14:04:10.510Z,99318.00
2019-05-30T14:06:42.866Z,99330.00
2019-05-30T14:09:12.172Z,99320.00
2019-05-30T14:11:41.479Z,99315.00
2019-05-30T14:14:11.208Z,99317.00
2019-05-30T14:16:40.928Z,99310.00
2019-05-30T14:19:11.578Z,99312.00
2019-05-30T14:21:41.053Z,99313.00
2019-05-30T14:24:11.521Z,99318.00
2019-05-30T14:26:41.136Z,99314.00
2019-05-30T14:29:10.429Z,99317.00
2019-05-30T14:31:39.932Z,99316.00
2019-05-30T14:34:10.197Z,99310.00
2019-05-30T14:36:39.559Z,99314.00
2019-05-30T14:39:09.133Z,99315.00
2019-05-30T14:41:38.381Z,99326.00
2019-05-30T14:44:07.762Z,99309.00
2019-05-30T14:46:37.056Z,99314.00
2019-05-30T14:49:06.493Z,99312.00
2019-05-30T14:51:36.235Z,99314.00
2019-05-30T14:54:05.400Z,99310.00
2019-05-30T14:56:34.728Z,99304.00
2019-05-30T14:59:04.933Z,99311.00
2019-05-30T15:01:34.216Z,99318.00
2019-05-30T15:04:03.481Z,99307.00
2019-05-30T15:06:33.017Z,99310.00
2019-05-30T15:10:36.764Z,99295.00
2019-05-30T15:13:17.954Z,99318.00
2019-05-30T15:15:58.775Z,99309.00
2019-05-30T15:18:39.748Z,99297.00
2019-05-30T15:21:22.394Z,99306.00
2019-05-30T15:24:03.609Z,99340.00
2019-05-30T15:29:36.543Z,99316.00
2019-05-30T15:35:08.760Z,99334.00
2019-05-30T15:37:50.418Z,99307.00
2019-05-30T15:43:55.067Z,99310.00
2019-05-30T15:46:43.577Z,99309.00
2019-05-30T15:49:31.965Z,99305.00
2019-05-30T15:52:13.462Z,99315.00
2019-05-30T15:54:55.067Z,99305.00
2019-05-30T15:57:37.844Z,99304.00
2019-05-30T16:00:19.989Z,99299.00
2019-05-30T16:03:01.568Z,99337.00
2019-05-30T16:05:42.600Z,99304.00
2019-05-30T16:08:24.115Z,99334.00
2019-05-30T16:11:05.402Z,99320.00
2019-05-30T16:13:46.115Z,99251.00
2019-05-30T16:16:38.924Z,99326.00
2019-05-30T16:19:17.255Z,99337.00
2019-05-30T16:21:53.057Z,99351.00
2019-05-30T16:24:34.338Z,99311.00
2019-05-30T16:27:15.877Z,99313.00
2019-05-30T16:29:57.322Z,99320.00
2019-05-30T16:32:38.149Z,99314.00
2019-05-30T16:35:20.186Z,99311.00
2019-05-30T16:38:01.302Z,99314.00
2019-05-30T16:40:42.752Z,99311.00
2019-05-30T16:43:24.281Z,99317.00
2019-05-30T16:48:49.239Z,99306.00
2019-05-30T16:54:15.147Z,99307.00
2019-05-30T16:56:56.706Z,99343.00
2019-05-30T16:59:38.410Z,99222.00
2019-05-30T17:02:20.818Z,99296.00
2019-05-30T17:07:48.231Z,99329.00
2019-05-30T17:10:32.630Z,99306.00
2019-05-30T17:13:09.678Z,99294.00
2019-05-30T17:15:51.182Z,99342.00
2019-05-30T17:18:32.016Z,99306.00
2019-05-30T17:21:13.492Z,99310.00
2019-05-30T17:23:54.154Z,99304.00
2019-05-30T17:29:23.562Z,99279.00
2019-05-30T17:32:05.273Z,99317.00
2019-05-30T17:34:49.695Z,99311.00
2019-05-30T17:37:31.269Z,99343.00
2019-05-30T17:40:12.722Z,99241.00
2019-05-30T17:42:53.483Z,99308.00
2019-05-30T17:48:17.003Z,99314.00
2019-05-30T17:53:39.411Z,99319.00
2019-05-30T18:05:24.565Z,99355.00
2019-05-30T18:08:14.538Z,99359.00
2019-05-30T18:11:02.918Z,99264.00
2019-05-30T18:13:51.680Z,99319.00
2019-05-30T18:16:39.977Z,99355.00
2019-05-30T18:22:29.782Z,99337.00
2019-05-30T18:28:32.454Z,99326.00
2019-05-30T18:34:10.258Z,99308.00
2019-05-30T18:36:58.660Z,99334.00
2019-05-30T18:39:46.966Z,99332.00
2019-05-30T18:42:35.467Z,99338.00
2019-05-30T18:48:27.261Z,99279.00
2019-05-30T18:51:09.083Z,99341.00
2019-05-30T18:53:50.695Z,99357.00
2019-05-30T18:56:32.782Z,99329.00
2019-05-30T18:59:14.001Z,99324.00
2019-05-30T19:01:55.607Z,99333.00
2019-05-30T19:04:36.960Z,99313.00
2019-05-30T19:10:09.590Z,99370.00
2019-05-30T19:12:50.170Z,99334.00
2019-05-30T19:15:32.710Z,99369.00
2019-05-30T19:18:13.820Z,99375.00
2019-05-30T19:20:55.160Z,99317.00
2019-05-30T19:23:39.591Z,99347.00
2019-05-30T19:26:21.948Z,99347.00
2019-05-30T19:29:03.550Z,99353.00
2019-05-30T19:31:44.985Z,99361.00
2019-05-30T19:34:30.628Z,99353.00
2019-05-30T19:37:11.538Z,99358.00
2019-05-30T19:39:52.949Z,99369.00
2019-05-30T19:45:18.722Z,99373.00
2019-05-30T19:48:00.250Z,99372.00
2019-05-30T19:50:41.367Z,99409.00
2019-05-30T19:53:22.049Z,99374.00
2019-05-30T19:56:03.518Z,99381.00
2019-05-30T20:01:27.363Z,99370.00
2019-05-30T20:04:09.209Z,99379.00
2019-05-30T20:06:50.131Z,99425.00
2019-05-30T20:09:30.860Z,99381.00
2019-05-30T20:12:12.337Z,99410.00
2019-05-30T20:14:56.278Z,99423.00
2019-05-30T20:17:37.651Z,99375.00
2019-05-30T20:20:19.015Z,99396.00
2019-05-30T20:23:00.584Z,99391.00
2019-05-30T20:25:45.760Z,99397.00
2019-05-30T20:28:25.197Z,99396.00
2019-05-30T20:31:06.550Z,99401.00
2019-05-30T20:33:48.036Z,99399.00
2019-05-30T20:36:30.178Z,99369.00
2019-05-30T20:41:55.514Z,99396.00
2019-05-30T20:44:36.920Z,99396.00
2019-05-30T20:47:17.665Z,99402.00
2019-05-30T20:49:58.483Z,99390.00
2019-05-30T20:52:42.765Z,99363.00
2019-05-30T20:55:22.426Z,99402.00
2019-05-30T20:58:04.008Z,99326.00
2019-05-30T21:00:45.779Z,99404.00
2019-05-30T21:03:27.242Z,99351.00
2019-05-30T21:06:07.945Z,99405.00
2019-05-30T21:11:33.149Z,99438.00
2019-05-30T21:14:14.695Z,99439.00
2019-05-30T21:16:59.299Z,99395.00
2019-05-30T21:19:42.041Z,99432.00
2019-05-30T21:22:23.704Z,99451.00
2019-05-30T21:25:05.041Z,99376.00
2019-05-30T21:27:47.324Z,99402.00
2019-05-30T21:30:31.306Z,99396.00
2019-05-30T21:33:12.909Z,99412.00
2019-05-30T21:35:54.392Z,99409.00
2019-05-30T21:41:25.373Z,99420.00
2019-05-30T21:44:06.728Z,99450.00
2019-05-30T21:46:51.083Z,99423.00
2019-05-30T21:49:32.456Z,99412.00
2019-05-30T21:55:06.142Z,99335.00
2019-05-30T21:57:48.122Z,99448.00
2019-05-30T22:00:29.236Z,99421.00
2019-05-30T22:03:10.755Z,99436.00
2019-05-30T22:05:52.166Z,99419.00
2019-05-30T22:08:33.500Z,99420.00
2019-05-30T22:11:14.241Z,99362.00
2019-05-30T22:13:54.980Z,99348.00
2019-05-30T22:16:36.127Z,99424.00
2019-05-30T22:19:17.290Z,99421.00
2019-05-30T22:21:58.145Z,99336.00
2019-05-30T22:24:38.890Z,99457.00
2019-05-30T22:27:19.628Z,99441.00
2019-05-30T22:30:01.263Z,99421.00
2019-05-30T22:32:42.933Z,99415.00
2019-05-30T22:35:24.468Z,99414.00
2019-05-30T22:38:05.898Z,99409.00
2019-05-30T22:40:47.881Z,99413.00
2019-05-30T22:43:29.070Z,99437.00
2019-05-30T22:46:10.599Z,99414.00
2019-05-30T22:48:52.918Z,99441.00
2019-05-30T22:51:34.529Z,99408.00
2019-05-30T22:54:16.096Z,99339.00
2019-05-30T22:56:56.822Z,99333.00
2019-05-30T22:59:37.439Z,99404.00
2019-05-30T23:02:18.070Z,99435.00
2019-05-30T23:04:59.016Z,99430.00
2019-05-30T23:07:39.868Z,99398.00
2019-05-30T23:10:20.893Z,99381.00
2019-05-30T23:13:01.729Z,99429.00
2019-05-30T23:15:42.628Z,99392.00
2019-05-30T23:18:24.077Z,99409.00
2019-05-30T23:21:04.844Z,99398.00
2019-05-30T23:23:46.879Z,99387.00
2019-05-30T23:26:28.051Z,99387.00
2019-05-30T23:29:08.794Z,99387.00
2019-05-30T23:31:49.958Z,99389.00
2019-05-30T23:34:31.611Z,99390.00
2019-05-30T23:37:13.200Z,99433.00
2019-05-30T23:39:54.988Z,99389.00
2019-05-30T23:42:36.333Z,99417.00
2019-05-30T23:45:17.845Z,99492.00
2019-05-30T23:47:59.802Z,99385.00
2019-05-30T23:50:40.793Z,99417.00
2019-05-30T23:53:23.540Z,99388.00
2019-05-30T23:56:05.103Z,99386.00
2019-05-30T23:58:46.633Z,99351.00
